Lymantown, Wisconsin
Current Conditions -  °F | °C
As of 12:15 PM on Saturday 25 Oct 2014 (Local Time) from KPBH Reporting Station
Clear Clear  
Wind Chill: 54°   Ceiling: Unl
Heat Index: 54°   Visibility: 10mi
Dew Point: 31°   Wind: 12mph
Humidity: 41%   Direction: 300°WNW
Pressure: 29.9"   Gusts: 24mph
Location:  45.9599°N, 90.2362°W
Report Text: KPBH 251715Z AUTO 30010G21KT 10SM CLR 12/M01 A2990 RMK AO2 T01231006
Loading
Personal Weather Stations






























Interactive Weather Map
Tropical Storm Tracking
New forecast layout! Learn more

10-Day Weather Forecast

Advertisements
Track Severe Weather on mobile